createdAt,value
2019-03-10T00:03:42.572Z,99.90
2019-03-10T00:08:28.469Z,99.90
2019-03-10T00:13:14.310Z,99.90
2019-03-10T00:18:00.260Z,99.90
2019-03-10T00:22:46.071Z,99.90
2019-03-10T00:27:32.047Z,99.90
2019-03-10T00:32:17.886Z,99.90
2019-03-10T00:37:03.687Z,99.90
2019-03-10T00:42:38.730Z,99.90
2019-03-10T00:48:23.606Z,99.90
2019-03-10T00:53:09.291Z,99.90
2019-03-10T00:57:55.168Z,99.90
2019-03-10T01:02:41.371Z,99.90
2019-03-10T01:07:27.229Z,99.90
2019-03-10T01:12:13.392Z,99.90
2019-03-10T01:16:59.792Z,99.90
2019-03-10T01:21:46.931Z,99.90
2019-03-10T01:26:32.729Z,99.90
2019-03-10T01:31:29.789Z,99.90
2019-03-10T01:36:16.554Z,99.90
2019-03-10T01:41:02.281Z,99.90
2019-03-10T01:45:47.930Z,99.90
2019-03-10T01:50:34.341Z,99.90
2019-03-10T01:55:20.096Z,99.90
2019-03-10T02:00:07.042Z,99.90
2019-03-10T02:04:52.829Z,99.90
2019-03-10T02:09:38.508Z,99.90
2019-03-10T02:14:24.376Z,99.90
2019-03-10T02:19:10.201Z,99.90
2019-03-10T02:23:56.079Z,99.90
2019-03-10T02:28:41.888Z,99.90
2019-03-10T02:33:27.770Z,99.90
2019-03-10T02:38:13.613Z,99.90
2019-03-10T02:42:59.330Z,99.90
2019-03-10T02:47:45.250Z,99.90
2019-03-10T02:52:30.943Z,99.90
2019-03-10T02:57:16.697Z,99.90
2019-03-10T03:02:02.596Z,99.90
2019-03-10T03:06:48.416Z,99.90
2019-03-10T03:11:34.101Z,99.90
2019-03-10T03:16:19.861Z,99.90
2019-03-10T03:21:05.745Z,99.90
2019-03-10T03:25:51.693Z,99.90
2019-03-10T03:30:37.423Z,99.90
2019-03-10T03:35:59.124Z,99.90
2019-03-10T03:40:47.099Z,99.90
2019-03-10T03:45:32.830Z,99.90
2019-03-10T03:50:18.601Z,99.90
2019-03-10T03:55:04.689Z,99.90
2019-03-10T03:59:50.498Z,99.90
2019-03-10T04:04:36.340Z,99.90
2019-03-10T04:09:22.180Z,99.90
2019-03-10T04:14:07.915Z,99.90
2019-03-10T04:18:53.869Z,99.90
2019-03-10T04:23:39.634Z,99.90
2019-03-10T04:28:25.628Z,99.90
2019-03-10T04:33:11.317Z,99.90
2019-03-10T04:37:57.153Z,99.90
2019-03-10T04:42:43.092Z,99.90
2019-03-10T04:47:28.995Z,99.90
2019-03-10T04:52:14.717Z,99.90
2019-03-10T04:57:06.420Z,99.90
2019-03-10T05:01:52.149Z,99.90
2019-03-10T05:06:38.388Z,99.90
2019-03-10T05:11:24.151Z,99.90
2019-03-10T05:16:10.359Z,99.90
2019-03-10T05:20:56.180Z,99.90
2019-03-10T05:25:42.002Z,99.90
2019-03-10T05:30:27.685Z,99.90
2019-03-10T05:35:13.537Z,99.90
2019-03-10T05:39:59.285Z,99.90
2019-03-10T05:44:45.049Z,99.90
2019-03-10T05:49:30.759Z,99.90
2019-03-10T05:54:16.510Z,99.90
2019-03-10T05:59:02.467Z,99.90
2019-03-10T06:03:48.193Z,99.90
2019-03-10T06:08:34.004Z,99.90
2019-03-10T06:13:20.115Z,99.90
2019-03-10T06:18:13.602Z,99.90
2019-03-10T06:22:53.841Z,99.90
2019-03-10T06:27:39.783Z,99.90
2019-03-10T06:32:25.885Z,99.90
2019-03-10T06:37:11.747Z,99.90
2019-03-10T06:41:57.542Z,99.90
2019-03-10T06:46:43.362Z,99.90
2019-03-10T06:51:29.111Z,99.90
2019-03-10T06:56:14.790Z,99.90
2019-03-10T07:01:00.584Z,99.90
2019-03-10T07:05:46.301Z,99.90
2019-03-10T07:10:32.178Z,99.90
2019-03-10T07:15:17.856Z,99.90
2019-03-10T07:20:03.580Z,99.90
2019-03-10T07:24:49.335Z,99.90
2019-03-10T07:29:49.138Z,99.90
2019-03-10T07:34:53.010Z,99.90
2019-03-10T07:39:57.546Z,99.90
2019-03-10T07:45:14.560Z,99.90
2019-03-10T07:50:15.287Z,99.90
2019-03-10T07:55:38.780Z,99.90
2019-03-10T08:00:35.756Z,99.90
2019-03-10T08:05:46.265Z,99.90
2019-03-10T08:10:49.759Z,99.90
2019-03-10T08:16:03.232Z,99.90
2019-03-10T08:21:02.906Z,99.90
2019-03-10T08:26:13.615Z,99.90
2019-03-10T08:31:18.453Z,99.90
2019-03-10T08:36:30.396Z,99.90
2019-03-10T08:41:36.288Z,99.90
2019-03-10T08:46:31.303Z,99.90
2019-03-10T08:51:26.698Z,99.90
2019-03-10T08:56:20.123Z,99.90
2019-03-10T09:01:24.081Z,99.90
2019-03-10T09:06:37.206Z,99.90
2019-03-10T09:11:41.864Z,99.90
2019-03-10T09:16:39.432Z,99.90
2019-03-10T09:21:50.268Z,99.90
2019-03-10T09:27:00.948Z,99.90
2019-03-10T09:32:08.363Z,99.90
2019-03-10T09:37:12.032Z,99.90
2019-03-10T09:42:25.982Z,99.90
2019-03-10T09:47:33.554Z,99.90
2019-03-10T09:52:32.425Z,99.90
2019-03-10T09:57:25.186Z,99.90
2019-03-10T10:02:45.136Z,99.90
2019-03-10T10:07:59.699Z,99.90
2019-03-10T10:12:58.147Z,99.90
2019-03-10T10:17:53.657Z,99.90
2019-03-10T10:22:55.152Z,99.90
2019-03-10T10:27:58.316Z,99.90
2019-03-10T10:32:59.636Z,99.90
2019-03-10T10:38:19.577Z,99.90
2019-03-10T10:43:24.835Z,99.90
2019-03-10T10:48:41.696Z,99.90
2019-03-10T10:54:01.469Z,99.90
2019-03-10T10:59:04.725Z,99.90
2019-03-10T11:04:18.950Z,99.90
2019-03-10T11:09:18.145Z,99.90
2019-03-10T11:14:28.924Z,99.90
2019-03-10T11:19:36.358Z,99.90
2019-03-10T11:24:30.446Z,99.90
2019-03-10T11:29:23.310Z,99.90
2019-03-10T11:34:19.473Z,99.90
2019-03-10T11:39:25.921Z,99.90
2019-03-10T11:44:30.700Z,95.70
2019-03-10T11:49:25.150Z,86.50
2019-03-10T11:54:25.558Z,71.00
2019-03-10T11:59:28.819Z,76.90
2019-03-10T12:04:36.687Z,75.20
2019-03-10T12:09:21.392Z,77.40
2019-03-10T12:14:07.325Z,63.50
2019-03-10T12:18:53.102Z,61.50
2019-03-10T12:23:38.880Z,63.80
2019-03-10T12:28:24.621Z,62.10
2019-03-10T12:33:10.448Z,63.90
2019-03-10T12:37:56.366Z,67.30
2019-03-10T12:42:42.611Z,72.80
2019-03-10T12:47:28.504Z,71.20
2019-03-10T12:52:14.358Z,69.00
2019-03-10T12:57:00.326Z,70.10
2019-03-10T13:01:46.523Z,76.00
2019-03-10T13:06:32.565Z,79.90
2019-03-10T13:11:18.633Z,81.20
2019-03-10T13:16:04.472Z,88.90
2019-03-10T13:20:50.284Z,96.20
2019-03-10T13:25:36.127Z,99.90
2019-03-10T13:30:22.084Z,85.60
2019-03-10T13:35:08.652Z,94.10
2019-03-10T13:39:54.486Z,90.20
2019-03-10T13:44:40.402Z,90.40
2019-03-10T13:49:26.733Z,69.40
2019-03-10T13:54:12.703Z,62.30
2019-03-10T13:58:58.861Z,59.70
2019-03-10T14:03:44.820Z,58.00
2019-03-10T14:08:31.150Z,61.40
2019-03-10T14:13:17.044Z,57.80
2019-03-10T14:18:03.211Z,87.00
2019-03-10T14:22:49.290Z,99.90
2019-03-10T14:27:35.699Z,74.70
2019-03-10T14:32:22.030Z,77.50
2019-03-10T14:37:08.253Z,61.80
2019-03-10T14:41:54.578Z,59.90
2019-03-10T14:46:41.133Z,53.10
2019-03-10T14:51:27.368Z,52.50
2019-03-10T14:56:13.777Z,51.20
2019-03-10T15:01:00.135Z,54.40
2019-03-10T15:05:46.207Z,61.50
2019-03-10T15:10:32.358Z,98.90
2019-03-10T15:15:22.626Z,91.80
2019-03-10T15:20:07.053Z,99.30
2019-03-10T15:24:53.344Z,94.30
2019-03-10T15:29:39.533Z,85.00
2019-03-10T15:34:25.769Z,90.20
2019-03-10T15:39:12.095Z,99.90
2019-03-10T15:43:58.255Z,99.90
2019-03-10T15:48:48.723Z,99.90
2019-03-10T15:53:34.877Z,99.90
2019-03-10T15:58:21.137Z,99.90
2019-03-10T16:03:07.294Z,99.90
2019-03-10T16:07:53.542Z,99.90
2019-03-10T16:12:39.709Z,99.90
2019-03-10T16:17:25.687Z,99.90
2019-03-10T16:22:11.858Z,99.90
2019-03-10T16:26:58.106Z,99.90
2019-03-10T16:31:44.415Z,99.90
2019-03-10T16:36:30.610Z,99.90
2019-03-10T16:41:19.586Z,99.90
2019-03-10T16:46:04.722Z,99.90
2019-03-10T16:50:51.367Z,97.90
2019-03-10T16:55:37.475Z,92.20
2019-03-10T17:00:42.261Z,85.50
2019-03-10T17:05:28.341Z,86.60
2019-03-10T17:10:14.786Z,80.00
2019-03-10T17:15:00.964Z,78.00
2019-03-10T17:19:47.020Z,81.90
2019-03-10T17:24:33.263Z,88.50
2019-03-10T17:29:19.133Z,93.60
2019-03-10T17:34:05.238Z,94.70
2019-03-10T17:38:51.290Z,96.60
2019-03-10T17:43:37.097Z,94.50
2019-03-10T17:48:23.170Z,99.90
2019-03-10T17:53:09.112Z,99.90
2019-03-10T17:57:55.233Z,99.90
2019-03-10T18:02:42.909Z,99.90
2019-03-10T18:07:29.163Z,99.90
2019-03-10T18:12:15.502Z,99.90
2019-03-10T18:17:01.891Z,99.90
2019-03-10T18:21:50.744Z,99.90
2019-03-10T18:26:36.653Z,99.90
2019-03-10T18:31:22.850Z,99.90
2019-03-10T18:36:09.902Z,99.90
2019-03-10T18:40:56.129Z,99.90
2019-03-10T18:45:42.218Z,94.90
2019-03-10T18:50:28.853Z,97.00
2019-03-10T18:55:15.410Z,99.90
2019-03-10T19:00:03.693Z,99.90
2019-03-10T19:04:51.604Z,94.40
2019-03-10T19:09:37.956Z,95.20
2019-03-10T19:14:24.894Z,99.90
2019-03-10T19:19:11.286Z,99.90
2019-03-10T19:23:57.616Z,99.90
2019-03-10T19:28:43.786Z,99.90
2019-03-10T19:33:30.258Z,99.90
2019-03-10T19:38:16.563Z,99.90
2019-03-10T19:43:02.815Z,99.90
2019-03-10T19:47:50.029Z,99.90
2019-03-10T19:52:36.366Z,99.90
2019-03-10T19:57:22.735Z,99.90
2019-03-10T20:02:09.322Z,99.90
2019-03-10T20:06:55.503Z,99.90
2019-03-10T20:11:43.246Z,99.90
2019-03-10T20:16:29.632Z,99.90
2019-03-10T20:21:15.872Z,99.90
2019-03-10T20:26:02.012Z,99.90
2019-03-10T20:30:51.333Z,99.90
2019-03-10T20:35:37.363Z,99.90
2019-03-10T20:40:23.642Z,99.90
2019-03-10T20:45:09.738Z,99.90
2019-03-10T20:49:56.097Z,99.90
2019-03-10T20:54:42.214Z,99.90
2019-03-10T20:59:28.365Z,99.90
2019-03-10T21:04:15.028Z,99.90
2019-03-10T21:09:00.922Z,99.90
2019-03-10T21:13:47.346Z,99.90
2019-03-10T21:18:33.254Z,99.90
2019-03-10T21:23:19.447Z,99.90
2019-03-10T21:28:05.732Z,99.90
2019-03-10T21:32:51.973Z,99.90
2019-03-10T21:37:37.833Z,99.90
2019-03-10T21:42:23.654Z,99.90
2019-03-10T21:47:09.885Z,99.90
2019-03-10T21:51:55.810Z,99.90
2019-03-10T21:56:41.611Z,99.90
2019-03-10T22:01:27.607Z,99.90
2019-03-10T22:06:13.757Z,99.90
2019-03-10T22:10:59.795Z,99.90
2019-03-10T22:15:45.743Z,99.90
2019-03-10T22:20:31.852Z,99.90
2019-03-10T22:25:18.082Z,99.90
2019-03-10T22:30:03.995Z,99.90
2019-03-10T22:34:49.968Z,99.90
2019-03-10T22:39:36.033Z,99.90
2019-03-10T22:44:21.950Z,99.80
2019-03-10T22:49:08.786Z,96.20
2019-03-10T22:53:54.535Z,99.90
2019-03-10T22:58:40.289Z,94.90
2019-03-10T23:03:26.075Z,90.80
2019-03-10T23:08:11.993Z,94.00
2019-03-10T23:12:57.773Z,92.20
2019-03-10T23:17:43.605Z,83.30
2019-03-10T23:22:29.506Z,82.90
2019-03-10T23:27:15.261Z,87.50
2019-03-10T23:32:01.194Z,96.40
2019-03-10T23:36:46.884Z,98.60
2019-03-10T23:41:32.656Z,98.10
2019-03-10T23:46:18.466Z,99.90
2019-03-10T23:51:04.362Z,97.00
2019-03-10T23:55:50.345Z,99.90
